createdAt,value
2019-06-07T00:00:39.555Z,100245.57
2019-06-07T00:03:04.641Z,100248.48
2019-06-07T00:05:34.924Z,100245.91
2019-06-07T00:08:09.733Z,100252.95
2019-06-07T00:10:37.289Z,100266.83
2019-06-07T00:13:07.128Z,100267.73
2019-06-07T00:15:36.814Z,100278.63
2019-06-07T00:18:11.144Z,100287.25
2019-06-07T00:20:38.238Z,100290.77
2019-06-07T00:23:12.284Z,100294.10
2019-06-07T00:25:42.305Z,100296.47
2019-06-07T00:28:13.261Z,100298.50
2019-06-07T00:30:51.534Z,100294.27
2019-06-07T00:33:18.442Z,100298.86
2019-06-07T00:35:46.671Z,100303.17
2019-06-07T00:38:20.456Z,100294.55
2019-06-07T00:40:48.451Z,100304.29
2019-06-07T00:43:22.809Z,100306.05
2019-06-07T00:45:49.645Z,100314.34
2019-06-07T00:48:28.791Z,100307.67
2019-06-07T00:50:50.831Z,100314.95
2019-06-07T00:53:31.085Z,100306.20
2019-06-07T00:55:51.959Z,100310.23
2019-06-07T00:58:27.501Z,100309.17
2019-06-07T01:00:53.446Z,100318.23
2019-06-07T01:03:25.717Z,100316.80
2019-06-07T01:05:54.586Z,100312.23
2019-06-07T01:08:28.264Z,100316.42
2019-06-07T01:10:55.745Z,100308.81
2019-06-07T01:13:26.966Z,100309.69
2019-06-07T01:15:56.929Z,100316.13
2019-06-07T01:18:37.898Z,100317.72
2019-06-07T01:20:58.089Z,100319.02
2019-06-07T01:24:04.764Z,100316.66
2019-06-07T01:25:59.205Z,100316.80
2019-06-07T01:28:30.161Z,100329.36
2019-06-07T01:31:00.050Z,100324.63
2019-06-07T01:33:49.757Z,100332.77
2019-06-07T01:36:01.148Z,100337.28
2019-06-07T01:38:30.858Z,100334.33
2019-06-07T01:41:00.561Z,100334.19
2019-06-07T01:43:31.269Z,100332.91
2019-06-07T01:46:01.210Z,100330.50
2019-06-07T01:48:48.467Z,100322.59
2019-06-07T01:51:02.352Z,100318.29
2019-06-07T01:53:32.051Z,100313.12
2019-06-07T01:56:01.735Z,100312.61
2019-06-07T01:58:31.434Z,100316.62
2019-06-07T02:01:01.205Z,100315.48
2019-06-07T02:03:33.312Z,100308.31
2019-06-07T02:06:03.121Z,100307.16
2019-06-07T02:08:34.415Z,100304.58
2019-06-07T02:11:04.699Z,100314.09
2019-06-07T02:13:34.410Z,100309.88
2019-06-07T02:16:04.232Z,100310.73
2019-06-07T02:18:35.052Z,100317.97
2019-06-07T02:21:05.005Z,100316.55
2019-06-07T02:23:34.742Z,100311.31
2019-06-07T02:26:04.942Z,100310.77
2019-06-07T02:28:44.921Z,100314.55
2019-06-07T02:31:06.168Z,100312.06
2019-06-07T02:33:40.277Z,100307.91
2019-06-07T02:36:07.329Z,100307.47
2019-06-07T02:38:37.799Z,100308.83
2019-06-07T02:41:08.553Z,100304.98
2019-06-07T02:43:39.088Z,100302.41
2019-06-07T02:46:26.379Z,100301.73
2019-06-07T02:48:44.877Z,100304.69
2019-06-07T02:51:14.746Z,100302.34
2019-06-07T02:53:44.500Z,100297.72
2019-06-07T02:58:45.657Z,100294.84
2019-06-07T03:01:15.617Z,100289.00
2019-06-07T03:03:46.879Z,100295.57
2019-06-07T03:06:17.241Z,100292.52
2019-06-07T03:08:47.524Z,100294.23
2019-06-07T03:11:17.668Z,100292.85
2019-06-07T03:13:49.513Z,100288.55
2019-06-07T03:16:22.024Z,100286.52
2019-06-07T03:19:00.602Z,100287.49
2019-06-07T03:21:33.878Z,100287.61
2019-06-07T03:24:04.842Z,100292.39
2019-06-07T03:26:58.014Z,100289.36
2019-06-07T03:29:06.915Z,100297.29
2019-06-07T03:31:41.514Z,100300.68
2019-06-07T03:34:08.615Z,100300.72
2019-06-07T03:36:40.337Z,100304.27
2019-06-07T03:39:10.797Z,100306.17
2019-06-07T03:42:02.465Z,100311.77
2019-06-07T03:44:13.227Z,100316.35
2019-06-07T03:46:43.558Z,100319.23
2019-06-07T03:49:13.862Z,100322.03
2019-06-07T03:51:44.151Z,100322.42
2019-06-07T03:54:14.483Z,100320.36
2019-06-07T03:56:45.019Z,100330.67
2019-06-07T03:59:16.352Z,100319.66
2019-06-07T04:01:46.675Z,100326.73
2019-06-07T04:04:16.985Z,100331.30
2019-06-07T04:06:47.272Z,100326.73
2019-06-07T04:09:17.615Z,100328.98
2019-06-07T04:11:47.899Z,100328.16
2019-06-07T04:14:18.196Z,100332.36
2019-06-07T04:16:47.892Z,100331.70
2019-06-07T04:19:18.196Z,100327.55
2019-06-07T04:21:48.506Z,100330.94
2019-06-07T04:24:18.799Z,100328.84
2019-06-07T04:26:49.090Z,100328.84
2019-06-07T04:30:02.089Z,100327.95
2019-06-07T04:31:51.422Z,100331.91
2019-06-07T04:34:21.740Z,100332.14
2019-06-07T04:36:59.036Z,100336.63
2019-06-07T04:39:26.602Z,100335.03
2019-06-07T04:41:59.026Z,100333.70
2019-06-07T04:44:31.183Z,100334.42
2019-06-07T04:47:04.714Z,100339.87
2019-06-07T04:49:38.144Z,100340.97
2019-06-07T04:52:08.628Z,100341.22
2019-06-07T04:54:45.568Z,100346.58
2019-06-07T04:57:10.965Z,100343.53
2019-06-07T05:00:11.378Z,100346.31
2019-06-07T05:02:13.983Z,100344.14
2019-06-07T05:04:44.276Z,100338.22
2019-06-07T05:07:14.637Z,100337.66
2019-06-07T05:09:44.704Z,100327.68
2019-06-07T05:12:14.992Z,100336.56
2019-06-07T05:14:45.288Z,100329.70
2019-06-07T05:17:15.586Z,100336.35
2019-06-07T05:19:45.880Z,100334.05
2019-06-07T05:22:16.194Z,100334.86
2019-06-07T05:24:46.463Z,100335.19
2019-06-07T05:27:16.785Z,100338.41
2019-06-07T05:30:08.827Z,100335.13
2019-06-07T05:32:19.467Z,100338.90
2019-06-07T05:34:51.700Z,100332.80
2019-06-07T05:37:23.899Z,100332.39
2019-06-07T05:39:56.657Z,100332.15
2019-06-07T05:42:28.133Z,100330.89
2019-06-07T05:44:59.057Z,100340.53
2019-06-07T05:47:30.031Z,100334.75
2019-06-07T05:50:00.565Z,100336.63
2019-06-07T05:52:32.830Z,100334.44
2019-06-07T05:55:03.026Z,100338.84
2019-06-07T05:57:36.337Z,100333.24
2019-06-07T06:00:08.219Z,100336.36
2019-06-07T06:03:01.055Z,100335.98
2019-06-07T06:05:32.650Z,100330.45
2019-06-07T06:07:50.204Z,100327.72
2019-06-07T06:10:17.349Z,100326.78
2019-06-07T06:12:51.794Z,100321.74
2019-06-07T06:15:19.787Z,100327.75
2019-06-07T06:17:53.902Z,100318.19
2019-06-07T06:20:24.219Z,100315.02
2019-06-07T06:22:54.727Z,100318.69
2019-06-07T06:25:33.773Z,100321.92
2019-06-07T06:28:10.060Z,100317.27
2019-06-07T06:30:29.721Z,100318.75
2019-06-07T06:33:00.300Z,100323.37
2019-06-07T06:35:30.750Z,100321.06
2019-06-07T06:38:01.265Z,100325.95
2019-06-07T06:40:31.687Z,100331.56
2019-06-07T06:43:02.146Z,100332.27
2019-06-07T06:45:32.494Z,100332.99
2019-06-07T06:48:02.869Z,100328.59
2019-06-07T06:50:33.177Z,100327.64
2019-06-07T06:53:03.470Z,100320.82
2019-06-07T06:55:33.744Z,100320.37
2019-06-07T06:58:04.084Z,100316.08
2019-06-07T07:00:53.870Z,100322.31
2019-06-07T07:03:56.674Z,100326.30
2019-06-07T07:05:54.597Z,100331.67
2019-06-07T07:08:23.088Z,100329.45
2019-06-07T07:10:55.078Z,100332.25
2019-06-07T07:13:27.085Z,100331.26
2019-06-07T07:15:58.551Z,100333.77
2019-06-07T07:18:29.153Z,100334.20
2019-06-07T07:20:59.465Z,100334.24
2019-06-07T07:23:29.851Z,100330.55
2019-06-07T07:26:00.367Z,100330.50
2019-06-07T07:28:30.822Z,100329.99
2019-06-07T07:31:01.158Z,100330.52
2019-06-07T07:34:20.771Z,100326.31
2019-06-07T07:36:19.058Z,100325.45
2019-06-07T07:38:35.503Z,100327.90
2019-06-07T07:41:14.648Z,100321.57
2019-06-07T07:43:37.936Z,100319.25
2019-06-07T07:46:28.341Z,100315.19
2019-06-07T07:48:41.597Z,100321.96
2019-06-07T07:51:12.779Z,100314.77
2019-06-07T07:53:52.023Z,100316.10
2019-06-07T07:56:16.229Z,100306.86
2019-06-07T07:58:50.403Z,100305.66
2019-06-07T08:01:18.654Z,100298.69
2019-06-07T08:03:50.553Z,100302.34
2019-06-07T08:06:21.109Z,100306.38
2019-06-07T08:08:53.782Z,100308.77
2019-06-07T08:11:23.398Z,100309.88
2019-06-07T08:13:57.001Z,100310.72
2019-06-07T08:16:25.633Z,100300.31
2019-06-07T08:18:58.608Z,100299.84
2019-06-07T08:21:28.107Z,100298.56
2019-06-07T08:24:03.666Z,100302.33
2019-06-07T08:26:30.363Z,100294.79
2019-06-07T08:29:02.915Z,100292.25
2019-06-07T08:31:32.783Z,100289.83
2019-06-07T08:34:03.151Z,100279.61
2019-06-07T08:36:41.956Z,100279.58
2019-06-07T08:39:08.019Z,100288.20
2019-06-07T08:41:53.464Z,100280.25
2019-06-07T08:44:23.250Z,100286.14
2019-06-07T08:46:42.551Z,100281.45
2019-06-07T08:49:12.827Z,100282.96
2019-06-07T08:51:43.330Z,100278.25
2019-06-07T08:54:22.462Z,100270.63
2019-06-07T08:56:45.627Z,100274.94
2019-06-07T08:59:15.894Z,100269.32
2019-06-07T09:01:46.193Z,100268.55
2019-06-07T09:04:16.499Z,100269.60
2019-06-07T09:07:07.469Z,100263.67
2019-06-07T09:09:18.829Z,100270.95
2019-06-07T09:11:49.150Z,100264.27
2019-06-07T09:14:19.371Z,100263.16
2019-06-07T09:16:55.369Z,100262.86
2019-06-07T09:19:27.295Z,100255.58
2019-06-07T09:22:04.590Z,100253.75
2019-06-07T09:24:29.590Z,100255.55
2019-06-07T09:27:02.422Z,100250.14
2019-06-07T09:29:32.967Z,100249.42
2019-06-07T09:32:10.624Z,100248.16
2019-06-07T09:34:36.738Z,100238.55
2019-06-07T09:37:54.515Z,100238.88
2019-06-07T09:39:39.575Z,100248.42
2019-06-07T09:42:12.382Z,100244.37
2019-06-07T09:44:41.862Z,100245.75
2019-06-07T09:47:30.697Z,100240.25
2019-06-07T09:49:44.193Z,100245.94
2019-06-07T09:52:14.485Z,100241.66
2019-06-07T09:57:17.917Z,100221.11
2019-06-07T09:59:48.480Z,100224.29
2019-06-07T10:02:19.257Z,100214.41
2019-06-07T10:04:49.529Z,100214.95
2019-06-07T10:07:31.313Z,100212.67
2019-06-07T10:12:24.931Z,100209.97
2019-06-07T10:14:55.648Z,100210.44
2019-06-07T10:17:26.827Z,100213.83
2019-06-07T10:19:59.986Z,100220.47
2019-06-07T10:22:29.821Z,100206.95
2019-06-07T10:25:01.906Z,100212.03
2019-06-07T10:27:32.913Z,100210.81
2019-06-07T10:30:04.099Z,100212.06
2019-06-07T10:32:35.006Z,100208.59
2019-06-07T10:35:10.185Z,100197.77
2019-06-07T10:37:40.698Z,100194.70
2019-06-07T10:40:13.321Z,100197.02
2019-06-07T10:42:44.101Z,100194.02
2019-06-07T10:45:15.126Z,100200.91
2019-06-07T10:47:45.703Z,100198.29
2019-06-07T10:50:17.642Z,100197.87
2019-06-07T10:52:48.753Z,100180.87
2019-06-07T10:55:19.516Z,100181.93
2019-06-07T10:57:50.629Z,100179.59
2019-06-07T11:00:22.294Z,100169.94
2019-06-07T11:02:55.206Z,100174.23
2019-06-07T11:05:25.641Z,100169.64
2019-06-07T11:08:00.494Z,100165.70
2019-06-07T11:10:29.519Z,100167.55
2019-06-07T11:13:00.422Z,100166.59
2019-06-07T11:15:31.198Z,100167.50
2019-06-07T11:18:02.007Z,100177.66
2019-06-07T11:20:36.817Z,100168.22
2019-06-07T11:23:08.242Z,100167.56
2019-06-07T11:25:39.200Z,100164.39
2019-06-07T11:28:12.527Z,100166.25
2019-06-07T11:30:43.772Z,100159.73
2019-06-07T11:33:16.386Z,100155.11
2019-06-07T11:35:48.749Z,100153.55
2019-06-07T11:38:22.067Z,100150.13
2019-06-07T11:40:52.635Z,100144.38
2019-06-07T11:43:23.528Z,100153.45
2019-06-07T11:45:55.374Z,100147.90
2019-06-07T11:48:28.722Z,100147.75
2019-06-07T11:50:59.904Z,100149.67
2019-06-07T11:53:30.721Z,100145.05
2019-06-07T11:56:01.120Z,100143.84
2019-06-07T11:58:31.402Z,100142.17
2019-06-07T12:01:01.382Z,100134.05
2019-06-07T12:03:31.365Z,100132.52
2019-06-07T12:06:01.364Z,100135.50
2019-06-07T12:08:31.360Z,100126.99
2019-06-07T12:11:01.316Z,100122.71
2019-06-07T12:13:31.305Z,100122.97
2019-06-07T12:16:01.360Z,100118.14
2019-06-07T12:18:31.346Z,100111.00
2019-06-07T12:21:01.317Z,100104.41
2019-06-07T12:23:31.321Z,100105.16
2019-06-07T12:26:01.581Z,100104.13
2019-06-07T12:28:31.857Z,100083.45
2019-06-07T12:31:02.136Z,100075.28
2019-06-07T12:33:32.398Z,100071.68
2019-06-07T12:36:02.682Z,100069.39
2019-06-07T12:38:32.966Z,100076.81
2019-06-07T12:41:02.978Z,100075.66
2019-06-07T12:43:32.938Z,100067.07
2019-06-07T12:46:02.918Z,100071.17
2019-06-07T12:48:32.909Z,100075.25
2019-06-07T12:51:02.877Z,100077.08
2019-06-07T12:53:32.852Z,100065.06
2019-06-07T12:56:02.846Z,100076.45
2019-06-07T12:58:36.167Z,100066.62
2019-06-07T13:01:04.926Z,100053.59
2019-06-07T13:03:34.962Z,100051.88
2019-06-07T13:06:05.004Z,100065.16
2019-06-07T13:08:35.048Z,100047.37
2019-06-07T13:11:14.835Z,100041.33
2019-06-07T13:13:36.935Z,100044.67
2019-06-07T13:16:06.973Z,100045.74
2019-06-07T13:18:36.947Z,100034.55
2019-06-07T13:21:08.559Z,100036.63
2019-06-07T13:23:38.543Z,100030.77
2019-06-07T13:26:08.508Z,100030.91
2019-06-07T13:28:38.538Z,100033.83
2019-06-07T13:31:08.536Z,100031.91
2019-06-07T13:33:39.143Z,100033.67
2019-06-07T13:36:09.368Z,100030.27
2019-06-07T13:38:40.384Z,100019.28
2019-06-07T13:41:10.363Z,100008.59
2019-06-07T13:43:40.384Z,100008.49
2019-06-07T13:46:13.002Z,99985.28
2019-06-07T13:48:42.090Z,99985.26
2019-06-07T13:51:12.129Z,99984.31
2019-06-07T13:53:42.101Z,99983.51
2019-06-07T13:56:12.068Z,99982.80
2019-06-07T13:58:42.020Z,99974.28
2019-06-07T14:01:12.015Z,99978.99
2019-06-07T14:03:42.010Z,99969.02
2019-06-07T14:06:11.971Z,99977.09
2019-06-07T14:08:41.940Z,99967.09
2019-06-07T14:11:12.025Z,99957.97
2019-06-07T14:13:42.321Z,99962.19
2019-06-07T14:16:12.620Z,99949.61
2019-06-07T14:18:42.952Z,99949.41
2019-06-07T14:21:13.170Z,99954.56
2019-06-07T14:23:49.173Z,99952.80
2019-06-07T14:26:15.150Z,99944.61
2019-06-07T14:28:45.109Z,99943.80
2019-06-07T14:31:15.091Z,99938.39
2019-06-07T14:33:45.076Z,99934.41
2019-06-07T14:36:15.032Z,99932.17
2019-06-07T14:38:45.020Z,99928.29
2019-06-07T14:41:15.286Z,99926.92
2019-06-07T14:43:45.591Z,99928.88
2019-06-07T14:46:15.818Z,99937.70
2019-06-07T14:48:45.809Z,99929.31
2019-06-07T14:51:16.083Z,99930.52
2019-06-07T14:53:46.511Z,99927.53
2019-06-07T14:56:16.490Z,99925.98
2019-06-07T14:58:46.463Z,99915.90
2019-06-07T15:01:16.420Z,99915.13
2019-06-07T15:03:46.399Z,99912.59
2019-06-07T15:06:16.431Z,99904.95
2019-06-07T15:08:46.737Z,99901.39
2019-06-07T15:11:17.057Z,99901.92
2019-06-07T15:13:47.350Z,99893.86
2019-06-07T15:16:17.628Z,99889.34
2019-06-07T15:18:47.883Z,99885.28
2019-06-07T15:21:18.143Z,99885.63
2019-06-07T15:23:48.414Z,99888.38
2019-06-07T15:26:18.711Z,99879.60
2019-06-07T15:28:49.016Z,99866.69
2019-06-07T15:31:19.243Z,99862.80
2019-06-07T15:33:49.533Z,99857.61
2019-06-07T15:36:19.499Z,99856.72
2019-06-07T15:38:50.004Z,99854.33
2019-06-07T15:41:21.164Z,99847.41
2019-06-07T15:43:51.442Z,99851.04
2019-06-07T15:46:21.714Z,99848.45
2019-06-07T15:48:51.968Z,99851.83
2019-06-07T15:51:22.234Z,99845.45
2019-06-07T15:53:52.650Z,99851.11
2019-06-07T15:56:22.919Z,99840.63
2019-06-07T15:58:53.199Z,99833.11
2019-06-07T16:01:23.447Z,99834.19
2019-06-07T16:03:54.767Z,99838.17
2019-06-07T16:06:25.008Z,99840.65
2019-06-07T16:08:55.254Z,99838.33
2019-06-07T16:11:25.542Z,99843.42
2019-06-07T16:13:55.783Z,99831.84
2019-06-07T16:16:26.456Z,99831.44
2019-06-07T16:18:57.400Z,99840.20
2019-06-07T16:21:27.603Z,99828.03
2019-06-07T16:23:58.136Z,99825.13
2019-06-07T16:26:29.024Z,99830.53
2019-06-07T16:28:59.289Z,99830.26
2019-06-07T16:31:29.510Z,99827.60
2019-06-07T16:33:59.780Z,99823.47
2019-06-07T16:36:30.065Z,99821.52
2019-06-07T16:39:00.305Z,99816.77
2019-06-07T16:41:30.591Z,99814.94
2019-06-07T16:44:05.098Z,99818.50
2019-06-07T16:46:36.594Z,99812.53
2019-06-07T16:49:07.024Z,99817.29
2019-06-07T16:51:37.275Z,99815.64
2019-06-07T16:54:07.538Z,99805.95
2019-06-07T16:56:43.368Z,99804.33
2019-06-07T16:59:09.793Z,99806.50
2019-06-07T17:01:41.108Z,99799.56
2019-06-07T17:04:11.400Z,99798.75
2019-06-07T17:06:41.750Z,99793.97
2019-06-07T17:09:12.159Z,99796.16
2019-06-07T17:11:42.433Z,99792.56
2019-06-07T17:14:12.671Z,99798.05
2019-06-07T17:16:43.275Z,99780.05
2019-06-07T17:19:13.966Z,99782.98
2019-06-07T17:21:45.412Z,99774.66
2019-06-07T17:24:17.051Z,99772.87
2019-06-07T17:26:47.741Z,99770.27
2019-06-07T17:29:18.068Z,99773.42
2019-06-07T17:31:48.314Z,99771.04
2019-06-07T17:34:18.548Z,99775.77
2019-06-07T17:36:48.813Z,99774.93
2019-06-07T17:39:19.146Z,99775.70
2019-06-07T17:41:59.958Z,99761.21
2019-06-07T17:44:21.419Z,99759.22
2019-06-07T17:46:51.870Z,99754.39
2019-06-07T17:49:22.233Z,99759.30
2019-06-07T17:51:52.504Z,99756.45
2019-06-07T17:54:22.777Z,99749.69
2019-06-07T17:56:53.383Z,99740.95
2019-06-07T17:59:23.839Z,99736.20
2019-06-07T18:02:13.328Z,99723.45
2019-06-07T18:04:26.234Z,99711.52
2019-06-07T18:06:57.457Z,99698.86
2019-06-07T18:09:28.546Z,99696.44
2019-06-07T18:11:58.805Z,99695.40
2019-06-07T18:14:29.069Z,99695.34
2019-06-07T18:16:59.393Z,99697.09
2019-06-07T18:19:29.731Z,99705.49
2019-06-07T18:22:00.534Z,99711.86
2019-06-07T18:24:30.724Z,99718.46
2019-06-07T18:27:02.189Z,99730.17
2019-06-07T18:29:33.194Z,99738.78
2019-06-07T18:32:03.496Z,99738.68
2019-06-07T18:34:33.740Z,99734.47
2019-06-07T18:37:04.039Z,99730.25
2019-06-07T18:39:34.288Z,99732.95
2019-06-07T18:42:04.558Z,99739.59
2019-06-07T18:44:34.886Z,99734.83
2019-06-07T18:47:05.248Z,99728.68
2019-06-07T18:49:36.205Z,99731.34
2019-06-07T18:52:14.244Z,99731.05
2019-06-07T18:54:44.509Z,99743.55
2019-06-07T18:57:14.758Z,99743.95
2019-06-07T18:59:45.087Z,99743.05
2019-06-07T19:02:15.368Z,99736.20
2019-06-07T19:04:45.612Z,99748.89
2019-06-07T19:07:15.878Z,99749.98
2019-06-07T19:09:46.158Z,99754.38
2019-06-07T19:12:16.482Z,99752.16
2019-06-07T19:14:46.771Z,99752.69
2019-06-07T19:17:17.037Z,99747.64
2019-06-07T19:19:47.294Z,99754.33
2019-06-07T19:22:17.577Z,99753.84
2019-06-07T19:24:47.845Z,99753.65
2019-06-07T19:27:18.188Z,99757.25
2019-06-07T19:29:48.473Z,99753.78
2019-06-07T19:32:18.744Z,99754.34
2019-06-07T19:34:49.004Z,99748.36
2019-06-07T19:37:19.298Z,99748.23
2019-06-07T19:39:49.559Z,99756.91
2019-06-07T19:42:19.904Z,99767.61
2019-06-07T19:44:55.378Z,99765.17
2019-06-07T19:47:22.244Z,99762.79
2019-06-07T19:49:53.070Z,99760.77
2019-06-07T19:52:23.517Z,99754.12
2019-06-07T19:54:54.335Z,99749.55
2019-06-07T19:57:26.040Z,99750.07
2019-06-07T19:59:57.396Z,99762.19
2019-06-07T20:02:27.887Z,99768.64
2019-06-07T20:05:01.324Z,99778.16
2019-06-07T20:07:30.162Z,99787.95
2019-06-07T20:10:00.719Z,99783.38
2019-06-07T20:12:32.684Z,99783.38
2019-06-07T20:15:25.266Z,99789.83
2019-06-07T20:17:34.945Z,99788.73
2019-06-07T20:20:08.951Z,99802.00
2019-06-07T20:22:39.532Z,99813.89
2019-06-07T20:25:10.502Z,99813.38
2019-06-07T20:27:40.870Z,99803.17
2019-06-07T20:30:13.490Z,99806.86
2019-06-07T20:32:43.762Z,99788.78
2019-06-07T20:35:14.551Z,99785.33
2019-06-07T20:37:44.789Z,99787.00
2019-06-07T20:40:24.300Z,99784.01
2019-06-07T20:42:47.649Z,99789.08
2019-06-07T20:45:32.538Z,99789.69
2019-06-07T20:47:50.350Z,99792.83
2019-06-07T20:50:20.685Z,99781.17
2019-06-07T20:52:50.989Z,99780.80
2019-06-07T20:55:21.333Z,99775.06
2019-06-07T20:57:51.571Z,99774.50
2019-06-07T21:00:22.539Z,99771.41
2019-06-07T21:02:53.803Z,99761.70
2019-06-07T21:05:24.072Z,99765.75
2019-06-07T21:07:54.399Z,99770.39
2019-06-07T21:10:24.729Z,99766.38
2019-06-07T21:12:55.011Z,99755.41
2019-06-07T21:15:25.387Z,99755.41
2019-06-07T21:17:55.692Z,99764.72
2019-06-07T21:20:25.990Z,99769.52
2019-06-07T21:22:56.241Z,99769.77
2019-06-07T21:25:26.521Z,99770.44
2019-06-07T21:27:56.755Z,99782.31
2019-06-07T21:30:27.021Z,99787.34
2019-06-07T21:32:57.294Z,99789.17
2019-06-07T21:35:27.564Z,99798.98
2019-06-07T21:37:57.796Z,99807.11
2019-06-07T21:40:28.107Z,99823.02
2019-06-07T21:42:58.367Z,99837.26
2019-06-07T21:45:28.632Z,99842.59
2019-06-07T21:47:58.920Z,99845.41
2019-06-07T21:50:29.264Z,99856.87
2019-06-07T21:52:59.495Z,99860.80
2019-06-07T21:55:29.809Z,99864.23
2019-06-07T21:58:00.079Z,99857.84
2019-06-07T22:00:53.741Z,99859.56
2019-06-07T22:03:24.063Z,99857.87
2019-06-07T22:05:54.351Z,99869.17
2019-06-07T22:08:24.605Z,99868.37
2019-06-07T22:10:54.998Z,99864.93
2019-06-07T22:13:25.258Z,99874.63
2019-06-07T22:15:55.550Z,99868.00
2019-06-07T22:18:25.803Z,99868.56
2019-06-07T22:20:56.091Z,99874.72
2019-06-07T22:23:26.354Z,99879.47
2019-06-07T22:25:56.682Z,99922.28
2019-06-07T22:28:26.921Z,99975.88
2019-06-07T22:30:57.248Z,100054.03
2019-06-07T22:33:27.602Z,100048.19
2019-06-07T22:35:57.956Z,100060.81
2019-06-07T22:38:28.227Z,100045.45
2019-06-07T22:40:58.597Z,100044.69
2019-06-07T22:43:28.879Z,100034.88
2019-06-07T22:45:59.262Z,100052.98
2019-06-07T22:48:29.508Z,100040.45
2019-06-07T22:51:01.481Z,100036.83
2019-06-07T22:53:31.755Z,100048.02
2019-06-07T22:56:03.691Z,100039.94
2019-06-07T22:58:33.983Z,100044.87
2019-06-07T23:01:04.375Z,100037.09
2019-06-07T23:03:34.903Z,100022.93
2019-06-07T23:06:05.183Z,100035.94
2019-06-07T23:08:35.574Z,100051.45
2019-06-07T23:11:06.015Z,100064.90
2019-06-07T23:13:36.245Z,100077.42
2019-06-07T23:16:06.668Z,100088.84
2019-06-07T23:18:37.003Z,100094.80
2019-06-07T23:21:07.391Z,100106.77
2019-06-07T23:23:37.730Z,100124.31
2019-06-07T23:26:08.179Z,100116.35
2019-06-07T23:28:38.459Z,100129.69
2019-06-07T23:31:08.734Z,100128.07
2019-06-07T23:33:39.044Z,100147.38
2019-06-07T23:36:10.896Z,100157.48
2019-06-07T23:38:41.347Z,100157.73
2019-06-07T23:41:11.650Z,100173.81
2019-06-07T23:43:43.305Z,100191.12
2019-06-07T23:46:13.602Z,100186.80
2019-06-07T23:48:43.862Z,100197.38
2019-06-07T23:51:15.538Z,100203.99
2019-06-07T23:53:45.921Z,100206.73
2019-06-07T23:56:16.216Z,100222.73
2019-06-07T23:58:46.480Z,100230.20
